Time,TemperatureF,DewpointF,PressureIn,WindDirection,WindDirectionDegrees,WindSpeedMPH,WindSpeedGustMPH,Humidity,HourlyPrecipIn,Conditions,Clouds,dailyrainin,SoftwareType,DateUTC
2013-06-23 00:33:00,57.0,15.0,29.53,WNW,283,1.0,-999.0,19,-99.99,,,-99.99,,2013-06-23 06:33:00,
2013-06-23 00:43:00,57.0,15.0,29.53,WNW,283,1.0,-999.0,19,-99.99,,,-99.99,,2013-06-23 06:43:00,
2013-06-23 00:52:00,58.0,12.0,29.52,North,0,1.0,-999.0,16,-99.99,,,-99.99,,2013-06-23 06:52:00,
2013-06-23 01:02:00,59.0,13.0,29.50,NE,53,4.0,-999.0,16,-99.99,,,-99.99,,2013-06-23 07:02:00,
2013-06-23 01:12:00,59.0,13.0,29.50,NE,53,4.0,-999.0,16,-99.99,,,-99.99,,2013-06-23 07:12:00,
2013-06-23 01:22:00,58.0,13.0,29.51,NE,37,3.0,-999.0,17,-99.99,,,-99.99,,2013-06-23 07:22:00,
2013-06-23 01:34:00,57.0,13.0,29.52,NE,37,2.0,-999.0,17,-99.99,,,-99.99,,2013-06-23 07:34:00,
2013-06-23 01:43:00,57.0,13.0,29.52,NE,37,2.0,-999.0,17,-99.99,,,-99.99,,2013-06-23 07:43:00,
2013-06-23 01:53:00,55.0,16.0,29.53,SSE,165,1.0,-999.0,21,-99.99,,,-99.99,,2013-06-23 07:53:00,
2013-06-23 02:02:00,54.0,15.0,29.53,SSE,164,2.0,-999.0,21,-99.99,,,-99.99,,2013-06-23 08:02:00,
2013-06-23 02:11:00,54.0,15.0,29.53,SSE,164,2.0,-999.0,21,-99.99,,,-99.99,,2013-06-23 08:11:00,
2013-06-23 02:22:00,53.0,13.0,29.53,SSE,164,2.0,-999.0,20,-99.99,,,-99.99,,2013-06-23 08:22:00,
2013-06-23 02:33:00,53.0,14.0,29.53,SSE,164,2.0,-999.0,21,-99.99,,,-99.99,,2013-06-23 08:33:00,
2013-06-23 02:43:00,53.0,14.0,29.53,SSE,164,2.0,-999.0,21,-99.99,,,-99.99,,2013-06-23 08:43:00,
2013-06-23 02:53:00,52.0,15.0,29.54,South,169,3.0,-999.0,23,-99.99,,,-99.99,,2013-06-23 08:53:00,
2013-06-23 03:02:00,51.0,15.0,29.54,South,169,2.0,-999.0,23,-99.99,,,-99.99,,2013-06-23 09:02:00,
2013-06-23 03:12:00,51.0,15.0,29.54,South,169,2.0,-999.0,23,-99.99,,,-99.99,,2013-06-23 09:12:00,
2013-06-23 03:22:00,50.0,15.0,29.55,South,173,4.0,-999.0,24,-99.99,,,-99.99,,2013-06-23 09:22:00,
2013-06-23 03:34:00,51.0,16.0,29.55,NW,315,4.0,-999.0,24,-99.99,,,-99.99,,2013-06-23 09:34:00,
2013-06-23 03:43:00,51.0,16.0,29.55,NW,315,4.0,-999.0,24,-99.99,,,-99.99,,2013-06-23 09:43:00,
2013-06-23 03:54:00,50.0,16.0,29.55,NNW,332,1.0,-999.0,26,-99.99,,,-99.99,,2013-06-23 09:54:00,
2013-06-23 04:02:00,50.0,16.0,29.55,NNW,332,1.0,-999.0,25,-99.99,,,-99.99,,2013-06-23 10:02:00,
2013-06-23 05:01:00,50.0,15.0,29.55,North,11,3.0,-999.0,24,-99.99,,,-99.99,,2013-06-23 11:01:00,
2013-06-23 05:11:00,50.0,15.0,29.55,North,11,3.0,-999.0,24,-99.99,,,-99.99,,2013-06-23 11:11:00,
2013-06-23 05:22:00,50.0,14.0,29.54,NE,48,2.0,-999.0,23,-99.99,,,-99.99,,2013-06-23 11:22:00,
2013-06-23 05:33:00,50.0,13.0,29.55,NE,48,2.0,-999.0,22,-99.99,,,-99.99,,2013-06-23 11:33:00,
2013-06-23 05:43:00,50.0,13.0,29.55,NE,48,2.0,-999.0,22,-99.99,,,-99.99,,2013-06-23 11:43:00,
2013-06-23 05:53:00,47.0,14.0,29.57,NE,48,2.0,-999.0,26,-99.99,,,-99.99,,2013-06-23 11:53:00,
2013-06-23 06:22:00,46.0,15.0,29.59,NE,48,1.0,-999.0,28,-99.99,,,-99.99,,2013-06-23 12:22:00,
2013-06-23 06:33:00,47.0,14.0,29.59,NNE,22,1.0,-999.0,26,-99.99,,,-99.99,,2013-06-23 12:33:00,
2013-06-23 06:42:00,47.0,14.0,29.59,NNE,22,1.0,-999.0,26,-99.99,,,-99.99,,2013-06-23 12:42:00,
2013-06-23 06:53:00,50.0,16.0,29.57,NNE,23,1.0,-999.0,26,-99.99,,,-99.99,,2013-06-23 12:53:00,
2013-06-23 07:01:00,51.0,16.0,29.56,NNE,25,3.0,-999.0,25,-99.99,,,-99.99,,2013-06-23 13:01:00,
2013-06-23 07:11:00,51.0,16.0,29.56,NNE,25,3.0,-999.0,25,-99.99,,,-99.99,,2013-06-23 13:11:00,
2013-06-23 07:23:00,53.0,17.0,29.57,NNE,30,2.0,-999.0,24,-99.99,,,-99.99,,2013-06-23 13:23:00,
2013-06-23 07:34:00,55.0,18.0,29.55,NNE,20,3.0,-999.0,23,-99.99,,,-99.99,,2013-06-23 13:34:00,
2013-06-23 07:43:00,55.0,18.0,29.55,NNE,20,3.0,-999.0,23,-99.99,,,-99.99,,2013-06-23 13:43:00,
2013-06-23 07:54:00,58.0,20.0,29.55,NNE,13,2.0,-999.0,23,-99.99,,,-99.99,,2013-06-23 13:54:00,
2013-06-23 08:04:00,60.0,23.0,29.54,NNE,17,2.0,-999.0,24,-99.99,,,-99.99,,2013-06-23 14:04:00,
2013-06-23 08:11:00,60.0,23.0,29.54,NNE,17,2.0,-999.0,24,-99.99,,,-99.99,,2013-06-23 14:11:00,
2013-06-23 08:22:00,63.0,29.0,29.52,NNE,17,1.0,-999.0,27,-99.99,,,-99.99,,2013-06-23 14:22:00,
2013-06-23 08:44:00,66.0,31.0,29.51,NNE,23,1.0,-999.0,27,-99.99,,,-99.99,,2013-06-23 14:44:00,
2013-06-23 08:52:00,69.0,25.0,29.54,NNE,23,1.0,-999.0,19,-99.99,,,-99.99,,2013-06-23 14:52:00,
2013-06-23 09:05:00,69.0,25.0,29.54,NNE,23,1.0,-999.0,19,-99.99,,,-99.99,,2013-06-23 15:05:00,
2013-06-23 09:11:00,72.0,22.0,29.52,ENE,63,1.0,-999.0,15,-99.99,,,-99.99,,2013-06-23 15:11:00,
2013-06-23 09:22:00,74.0,23.0,29.52,ENE,63,1.0,-999.0,15,-99.99,,,-99.99,,2013-06-23 15:22:00,
2013-06-23 09:35:00,75.0,21.0,29.52,East,86,2.0,-999.0,13,-99.99,,,-99.99,,2013-06-23 15:35:00,
2013-06-23 09:43:00,75.0,21.0,29.52,East,86,2.0,-999.0,13,-99.99,,,-99.99,,2013-06-23 15:43:00,
2013-06-23 09:52:00,76.0,20.0,29.54,SE,136,1.0,-999.0,12,-99.99,,,-99.99,,2013-06-23 15:52:00,
2013-06-23 10:06:00,78.0,21.0,29.52,East,93,2.0,-999.0,12,-99.99,,,-99.99,,2013-06-23 16:06:00,
2013-06-23 10:12:00,78.0,21.0,29.52,East,93,2.0,-999.0,12,-99.99,,,-99.99,,2013-06-23 16:12:00,
2013-06-23 10:22:00,78.0,21.0,29.51,East,101,1.0,-999.0,12,-99.99,,,-99.99,,2013-06-23 16:22:00,
2013-06-23 10:36:00,78.0,21.0,29.51,East,101,1.0,-999.0,12,-99.99,,,-99.99,,2013-06-23 16:36:00,
2013-06-23 10:42:00,80.0,23.0,29.51,SE,131,2.0,-999.0,12,-99.99,,,-99.99,,2013-06-23 16:42:00,
2013-06-23 10:53:00,80.0,23.0,29.57,SSW,192,3.0,-999.0,12,-99.99,,,-99.99,,2013-06-23 16:53:00,
2013-06-23 11:03:00,80.0,23.0,29.57,SSW,192,3.0,-999.0,12,-99.99,,,-99.99,,2013-06-23 17:03:00,
2013-06-23 11:11:00,81.0,24.0,29.56,SSE,165,2.0,-999.0,12,-99.99,,,-99.99,,2013-06-23 17:11:00,
2013-06-23 11:22:00,82.0,22.0,29.55,East,92,2.0,-999.0,11,-99.99,,,-99.99,,2013-06-23 17:22:00,
2013-06-23 11:33:00,82.0,22.0,29.55,East,92,2.0,-999.0,11,-99.99,,,-99.99,,2013-06-23 17:33:00,
2013-06-23 11:43:00,83.0,23.0,29.55,SSW,209,3.0,-999.0,11,-99.99,,,-99.99,,2013-06-23 17:43:00,
2013-06-23 11:52:00,84.0,22.0,29.55,SSW,209,2.0,-999.0,10,-99.99,,,-99.99,,2013-06-23 17:52:00,
2013-06-23 12:01:00,84.0,22.0,29.55,SSW,209,2.0,-999.0,10,-99.99,,,-99.99,,2013-06-23 18:01:00,
2013-06-23 12:11:00,84.0,22.0,29.54,SSE,161,3.0,-999.0,10,-99.99,,,-99.99,,2013-06-23 18:11:00,
2013-06-23 12:22:00,84.0,22.0,29.52,SW,228,5.0,-999.0,10,-99.99,,,-99.99,,2013-06-23 18:22:00,
2013-06-23 12:34:00,84.0,22.0,29.52,SW,228,5.0,-999.0,10,-99.99,,,-99.99,,2013-06-23 18:34:00,
2013-06-23 12:42:00,85.0,22.0,29.52,SSW,195,3.0,-999.0,10,-99.99,,,-99.99,,2013-06-23 18:42:00,
2013-06-23 12:53:00,85.0,20.0,29.51,SW,214,5.0,-999.0,9,-99.99,,,-99.99,,2013-06-23 18:53:00,
2013-06-23 13:01:00,85.0,20.0,29.51,SW,214,5.0,-999.0,9,-99.99,,,-99.99,,2013-06-23 19:01:00,
2013-06-23 13:11:00,85.0,14.0,29.50,ESE,107,5.0,-999.0,7,-99.99,,,-99.99,,2013-06-23 19:11:00,
2013-06-23 13:21:00,86.0,15.0,29.50,SSE,148,7.0,-999.0,7,-99.99,,,-99.99,,2013-06-23 19:21:00,
2013-06-23 13:32:00,86.0,15.0,29.50,SSE,148,7.0,-999.0,7,-99.99,,,-99.99,,2013-06-23 19:32:00,
2013-06-23 13:43:00,86.0,15.0,29.49,ESE,119,5.0,-999.0,7,-99.99,,,-99.99,,2013-06-23 19:43:00,
2013-06-23 13:53:00,87.0,16.0,29.51,South,179,4.0,-999.0,7,-99.99,,,-99.99,,2013-06-23 19:53:00,
2013-06-23 14:02:00,87.0,16.0,29.51,South,179,4.0,-999.0,7,-99.99,,,-99.99,,2013-06-23 20:02:00,
2013-06-23 14:12:00,88.0,16.0,29.50,South,191,5.0,-999.0,7,-99.99,,,-99.99,,2013-06-23 20:12:00,
2013-06-23 14:23:00,87.0,16.0,29.49,ENE,64,4.0,-999.0,7,-99.99,,,-99.99,,2013-06-23 20:23:00,
2013-06-23 14:33:00,87.0,16.0,29.49,ENE,64,4.0,-999.0,7,-99.99,,,-99.99,,2013-06-23 20:33:00,
2013-06-23 14:42:00,88.0,13.0,29.49,SE,143,6.0,-999.0,6,-99.99,,,-99.99,,2013-06-23 20:42:00,
2013-06-23 14:52:00,89.0,13.0,29.50,SSW,213,4.0,-999.0,6,-99.99,,,-99.99,,2013-06-23 20:52:00,
2013-06-23 15:01:00,89.0,13.0,29.50,SSW,213,4.0,-999.0,6,-99.99,,,-99.99,,2013-06-23 21:01:00,
2013-06-23 15:11:00,89.0,13.0,29.49,WSW,244,8.0,-999.0,6,-99.99,,,-99.99,,2013-06-23 21:11:00,
2013-06-23 15:22:00,89.0,13.0,29.49,South,191,5.0,-999.0,6,-99.99,,,-99.99,,2013-06-23 21:22:00,
2013-06-23 15:33:00,89.0,13.0,29.49,South,191,5.0,-999.0,6,-99.99,,,-99.99,,2013-06-23 21:33:00,
2013-06-23 15:44:00,90.0,10.0,29.46,West,262,8.0,-999.0,5,-99.99,,,-99.99,,2013-06-23 21:44:00,
2013-06-23 15:52:00,89.0,9.0,29.48,SSE,155,5.0,-999.0,5,-99.99,,,-99.99,,2013-06-23 21:52:00,
2013-06-23 16:01:00,89.0,9.0,29.48,SSE,155,5.0,-999.0,5,-99.99,,,-99.99,,2013-06-23 22:01:00,
2013-06-23 16:11:00,89.0,9.0,29.47,SSW,210,8.0,-999.0,5,-99.99,,,-99.99,,2013-06-23 22:11:00,
2013-06-23 16:22:00,90.0,10.0,29.47,SSW,211,8.0,-999.0,5,-99.99,,,-99.99,,2013-06-23 22:22:00,
2013-06-23 16:32:00,90.0,10.0,29.47,SSW,211,8.0,-999.0,5,-99.99,,,-99.99,,2013-06-23 22:32:00,
2013-06-23 16:43:00,90.0,10.0,29.46,SW,217,7.0,-999.0,5,-99.99,,,-99.99,,2013-06-23 22:43:00,
2013-06-23 16:53:00,89.0,13.0,29.45,SW,214,8.0,-999.0,6,-99.99,,,-99.99,,2013-06-23 22:53:00,
2013-06-23 17:01:00,89.0,13.0,29.45,SW,214,8.0,-999.0,6,-99.99,,,-99.99,,2013-06-23 23:01:00,
2013-06-23 17:11:00,87.0,8.0,29.45,WSW,247,8.0,-999.0,5,-99.99,,,-99.99,,2013-06-23 23:11:00,
2013-06-23 17:22:00,87.0,12.0,29.46,SE,135,9.0,-999.0,6,-99.99,,,-99.99,,2013-06-23 23:22:00,
2013-06-23 17:33:00,87.0,12.0,29.46,SE,135,9.0,-999.0,6,-99.99,,,-99.99,,2013-06-23 23:33:00,
2013-06-23 17:44:00,88.0,13.0,29.46,SW,231,4.0,-999.0,6,-99.99,,,-99.99,,2013-06-23 23:44:00,
2013-06-23 17:52:00,89.0,13.0,29.46,SW,226,7.0,-999.0,6,-99.99,,,-99.99,,2013-06-23 23:52:00,
2013-06-23 18:01:00,89.0,13.0,29.46,SW,226,7.0,-999.0,6,-99.99,,,-99.99,,2013-06-24 00:01:00,
2013-06-23 18:11:00,87.0,16.0,29.46,ESE,120,4.0,-999.0,7,-99.99,,,-99.99,,2013-06-24 00:11:00,
2013-06-23 18:22:00,86.0,11.0,29.47,WSW,240,5.0,-999.0,6,-99.99,,,-99.99,,2013-06-24 00:22:00,
2013-06-23 18:33:00,86.0,11.0,29.47,WSW,240,5.0,-999.0,6,-99.99,,,-99.99,,2013-06-24 00:33:00,
2013-06-23 18:42:00,86.0,11.0,29.46,WSW,250,8.0,-999.0,6,-99.99,,,-99.99,,2013-06-24 00:42:00,
2013-06-23 18:52:00,87.0,12.0,29.42,SW,231,7.0,-999.0,6,-99.99,,,-99.99,,2013-06-24 00:52:00,
2013-06-23 19:01:00,87.0,12.0,29.42,SW,231,7.0,-999.0,6,-99.99,,,-99.99,,2013-06-24 01:01:00,
2013-06-23 19:11:00,87.0,12.0,29.41,WSW,253,4.0,-999.0,6,-99.99,,,-99.99,,2013-06-24 01:11:00,
2013-06-23 19:22:00,87.0,12.0,29.41,WSW,253,4.0,-999.0,6,-99.99,,,-99.99,,2013-06-24 01:22:00,
2013-06-23 19:32:00,87.0,12.0,29.41,WSW,253,4.0,-999.0,6,-99.99,,,-99.99,,2013-06-24 01:32:00,
2013-06-23 19:42:00,86.0,11.0,29.41,SW,223,3.0,-999.0,6,-99.99,,,-99.99,,2013-06-24 01:42:00,
2013-06-23 19:52:00,85.0,11.0,29.36,SSW,205,1.0,-999.0,6,-99.99,,,-99.99,,2013-06-24 01:52:00,
2013-06-23 20:02:00,85.0,11.0,29.36,SSW,205,1.0,-999.0,6,-99.99,,,-99.99,,2013-06-24 02:02:00,
2013-06-23 20:11:00,84.0,13.0,29.37,SW,215,1.0,-999.0,7,-99.99,,,-99.99,,2013-06-24 02:11:00,
2013-06-23 20:22:00,83.0,13.0,29.37,SW,215,0.0,-999.0,7,-99.99,,,-99.99,,2013-06-24 02:22:00,
2013-06-23 20:33:00,83.0,13.0,29.37,SW,215,0.0,-999.0,7,-99.99,,,-99.99,,2013-06-24 02:33:00,
2013-06-23 20:42:00,82.0,12.0,29.37,SW,215,0.0,-999.0,7,-99.99,,,-99.99,,2013-06-24 02:42:00,
2013-06-23 20:53:00,81.0,11.0,29.32,SW,215,0.0,-999.0,7,-99.99,,,-99.99,,2013-06-24 02:53:00,
2013-06-23 21:01:00,81.0,11.0,29.32,SW,215,0.0,-999.0,7,-99.99,,,-99.99,,2013-06-24 03:01:00,
2013-06-23 21:11:00,79.0,10.0,29.34,SW,215,0.0,-999.0,7,-99.99,,,-99.99,,2013-06-24 03:11:00,
2013-06-23 21:22:00,76.0,13.0,29.35,SW,215,0.0,-999.0,9,-99.99,,,-99.99,,2013-06-24 03:22:00,
2013-06-23 21:33:00,76.0,13.0,29.35,SW,215,0.0,-999.0,9,-99.99,,,-99.99,,2013-06-24 03:33:00,
2013-06-23 21:43:00,72.0,15.0,29.36,SW,215,0.0,-999.0,11,-99.99,,,-99.99,,2013-06-24 03:43:00,
2013-06-23 21:53:00,69.0,18.0,29.37,SW,215,0.0,-999.0,14,-99.99,,,-99.99,,2013-06-24 03:53:00,
2013-06-23 22:02:00,69.0,18.0,29.37,SW,215,0.0,-999.0,14,-99.99,,,-99.99,,2013-06-24 04:02:00,
2013-06-23 22:12:00,66.0,17.0,29.40,East,86,1.0,-999.0,15,-99.99,,,-99.99,,2013-06-24 04:12:00,
2013-06-23 22:22:00,66.0,17.0,29.40,East,86,1.0,-999.0,15,-99.99,,,-99.99,,2013-06-24 04:22:00,